Time;durP1;ratioP1;P1;durP2;ratioP2;P2;SDS_P1;SDS_P2;PMS_P1;PMS_P2;Temp;Humidity;BMP_temperature;BMP_pressure;BME280_temperature;BME280_humidity;BME280_pressure;Samples;Min_cycle;Max_cycle;Signal;HPM_P1;HPM_P2
2023/07/18 00:01:32;;;;;;;6.25;5.65;;;;;;;13.91;100.00;101651.88;6114045;23;20017;-69
2023/07/18 00:03:58;;;;;;;5.45;5.10;;;;;;;13.92;100.00;101680.81;6109544;23;20052;-70
2023/07/18 00:06:25;;;;;;;5.55;5.20;;;;;;;13.37;100.00;101559.66;6104723;23;20048;-69
2023/07/18 00:08:54;;;;;;;5.70;5.20;;;;;;;13.92;100.00;101643.88;6105630;23;20032;-69
2023/07/18 00:11:22;;;;;;;5.50;5.20;;;;;;;13.89;100.00;101643.16;6085248;23;20049;-70
2023/07/18 00:13:48;;;;;;;5.78;5.38;;;;;;;13.89;100.00;101649.31;6113594;23;20033;-70
2023/07/18 00:16:15;;;;;;;6.20;5.57;;;;;;;13.87;100.00;101656.47;6112794;23;20388;-70
2023/07/18 00:18:41;;;;;;;5.88;5.47;;;;;;;13.83;100.00;101647.00;6112278;23;20071;-68
2023/07/18 00:21:08;;;;;;;5.82;5.32;;;;;;;13.79;100.00;101648.09;6106020;23;20061;-69
2023/07/18 00:23:34;;;;;;;5.03;4.72;;;;;;;13.32;100.00;101583.56;6107118;23;20021;-69
2023/07/18 00:26:01;;;;;;;5.47;5.07;;;;;;;13.74;100.00;101673.84;6080939;23;20029;-68
2023/07/18 00:28:28;;;;;;;5.70;5.30;;;;;;;13.73;100.00;101661.56;6115000;23;20026;-68
2023/07/18 00:30:55;;;;;;;6.03;5.50;;;;;;;13.72;100.00;101662.50;6081264;23;20040;-68
2023/07/18 00:33:21;;;;;;;5.85;5.45;;;;;;;13.63;100.00;101652.41;6113639;23;20024;-70
2023/07/18 00:35:48;;;;;;;5.80;5.40;;;;;;;13.68;100.00;101661.78;6112713;23;20040;-68
2023/07/18 00:38:14;;;;;;;5.80;5.40;;;;;;;13.68;100.00;101650.41;6086050;23;20599;-69
2023/07/18 00:40:40;;;;;;;5.50;5.10;;;;;;;13.31;100.00;101597.72;6109210;23;20452;-71
2023/07/18 00:43:16;;;;;;;5.30;5.00;;;;;;;13.52;100.00;101634.47;6102175;23;20580;-70
2023/07/18 00:45:47;;;;;;;5.47;5.18;;;;;;;13.55;100.00;101645.75;6081247;23;20025;-70
2023/07/18 00:48:14;;;;;;;6.05;5.60;;;;;;;13.41;100.00;101635.03;6085752;23;20479;-69
2023/07/18 00:50:41;;;;;;;5.78;5.32;;;;;;;13.06;100.00;101611.19;6115491;23;20029;-70
2023/07/18 00:53:07;;;;;;;5.50;5.20;;;;;;;12.82;100.00;101580.75;6114328;23;20081;-68
2023/07/18 00:55:34;;;;;;;5.10;4.80;;;;;;;13.00;100.00;101626.44;6116538;23;20044;-69
2023/07/18 00:58:03;;;;;;;5.38;5.03;;;;;;;12.84;100.00;101621.88;6110936;23;20092;-69
2023/07/18 01:00:29;;;;;;;5.07;4.78;;;;;;;12.77;100.00;101620.47;6089208;23;20801;-68
2023/07/18 01:02:56;;;;;;;5.25;4.95;;;;;;;12.58;100.00;101591.50;6115910;23;20053;-70
2023/07/18 01:05:22;;;;;;;5.90;5.50;;;;;;;12.68;100.00;101608.56;6113294;23;20022;-70
2023/07/18 01:07:49;;;;;;;5.68;5.28;;;;;;;12.91;100.00;101643.50;6114209;23;20045;-69
2023/07/18 01:10:23;;;;;;;7.30;5.50;;;;;;;12.92;100.00;101647.88;6115904;23;20045;-71
2023/07/18 01:12:54;;;;;;;7.22;5.40;;;;;;;12.93;100.00;101652.22;6115629;23;20037;-70
2023/07/18 01:15:21;;;;;;;7.95;5.47;;;;;;;12.78;100.00;101628.28;6115054;23;20379;-71
2023/07/18 01:17:49;;;;;;;6.20;5.60;;;;;;;12.94;100.00;101653.94;6113878;23;20542;-68
2023/07/18 01:20:27;;;;;;;5.78;5.38;;;;;;;12.95;100.00;101655.66;6092506;23;20075;-69
2023/07/18 01:22:56;;;;;;;5.30;5.00;;;;;;;12.90;100.00;101641.81;6111734;23;20049;-68
2023/07/18 01:25:23;;;;;;;6.10;5.60;;;;;;;12.61;100.00;101614.19;6112458;23;20021;-68
2023/07/18 01:27:53;;;;;;;5.18;4.88;;;;;;;12.64;100.00;101628.06;6110592;23;20098;-69
2023/07/18 01:30:22;;;;;;;5.43;5.03;;;;;;;12.52;100.00;101632.13;6112476;23;20033;-68
2023/07/18 01:32:49;;;;;;;5.93;5.50;;;;;;;11.96;100.00;101554.78;6093991;23;20022;-68
2023/07/18 01:35:20;;;;;;;5.43;5.13;;;;;;;12.20;100.00;101616.94;6113056;23;20100;-69
2023/07/18 01:37:48;;;;;;;5.43;5.05;;;;;;;11.87;100.00;101572.72;6114949;23;20028;-70
2023/07/18 01:40:19;;;;;;;5.28;4.97;;;;;;;12.20;100.00;101635.34;6088478;23;20091;-69
2023/07/18 01:42:48;;;;;;;6.60;5.40;;;;;;;11.76;100.00;101576.66;6115808;23;20048;-69
2023/07/18 01:45:15;;;;;;;5.82;5.25;;;;;;;11.77;100.00;101583.63;6115108;23;20067;-70
2023/07/18 01:47:41;;;;;;;5.63;5.13;;;;;;;12.10;100.00;101635.72;6109165;23;20044;-69
2023/07/18 01:50:08;;;;;;;5.40;5.00;;;;;;;12.13;100.00;101640.88;6115574;23;20037;-69
2023/07/18 01:52:36;;;;;;;5.72;5.32;;;;;;;12.08;100.00;101629.69;6110609;23;20025;-69
2023/07/18 01:55:05;;;;;;;5.97;5.35;;;;;;;12.09;100.00;101626.16;6061308;23;20068;-68
2023/07/18 01:57:42;;;;;;;5.75;5.30;;;;;;;12.29;100.00;101653.38;6110762;23;20106;-70
2023/07/18 02:00:11;;;;;;;6.65;6.03;;;;;;;12.33;100.00;101644.41;6112579;23;20369;-69
2023/07/18 02:02:41;;;;;;;6.00;5.60;;;;;;;12.15;100.00;101604.81;6110551;23;20639;-69
2023/07/18 02:05:08;;;;;;;7.22;6.63;;;;;;;12.46;100.00;101644.72;6111966;23;20093;-70
2023/07/18 02:07:35;;;;;;;5.88;5.40;;;;;;;12.52;100.00;101647.06;6113128;23;20045;-69
2023/07/18 02:10:02;;;;;;;5.80;5.30;;;;;;;12.54;100.00;101655.75;6116076;23;20030;-68
2023/07/18 02:12:28;;;;;;;8.60;5.32;;;;;;;12.55;100.00;101649.56;6108489;23;20021;-69
2023/07/18 02:14:55;;;;;;;5.35;4.95;;;;;;;12.58;100.00;101652.91;6113950;23;20057;-69
2023/07/18 02:17:21;;;;;;;6.05;5.47;;;;;;;12.23;100.00;101582.56;6110246;23;20027;-68
2023/07/18 02:19:47;;;;;;;5.93;5.53;;;;;;;12.59;100.00;101643.25;6082176;23;20108;-68
2023/07/18 02:22:14;;;;;;;6.38;5.43;;;;;;;12.64;100.00;101649.13;6113296;23;20034;-69
2023/07/18 02:24:41;;;;;;;5.35;5.00;;;;;;;12.58;100.00;101631.00;6115331;23;20024;-69
2023/07/18 02:27:07;;;;;;;6.20;5.70;;;;;;;12.65;100.00;101637.69;6112182;23;20025;-69
2023/07/18 02:29:34;;;;;;;5.72;5.32;;;;;;;12.71;100.00;101641.84;6093523;23;20092;-68
2023/07/18 02:32:01;;;;;;;5.85;5.22;;;;;;;12.69;100.00;101655.06;6087766;23;20027;-70
2023/07/18 02:34:27;;;;;;;5.57;5.18;;;;;;;12.58;100.00;101620.47;6112592;23;20017;-70
2023/07/18 02:36:54;;;;;;;7.43;5.53;;;;;;;12.45;100.00;101609.66;6115972;23;20046;-70
2023/07/18 02:39:20;;;;;;;6.32;5.57;;;;;;;12.61;100.00;101646.66;6115866;23;20039;-70
2023/07/18 02:41:49;;;;;;;5.43;5.03;;;;;;;12.58;100.00;101646.78;6112217;23;20028;-69
2023/07/18 02:44:16;;;;;;;8.20;5.90;;;;;;;12.53;100.00;101652.28;6112234;23;20090;-72
2023/07/18 02:46:42;;;;;;;5.47;4.97;;;;;;;12.41;100.00;101633.53;6111739;23;20053;-71
2023/07/18 02:49:08;;;;;;;5.63;5.13;;;;;;;12.47;100.00;101654.31;6113590;23;20021;-69
2023/07/18 02:51:35;;;;;;;5.53;5.00;;;;;;;12.44;100.00;101646.56;6112841;23;20031;-70
2023/07/18 02:54:02;;;;;;;5.88;5.47;;;;;;;12.36;100.00;101649.53;6113034;23;20740;-70
2023/07/18 02:56:29;;;;;;;5.50;5.00;;;;;;;12.30;100.00;101648.03;6118128;23;20055;-71
2023/07/18 02:58:56;;;;;;;5.97;5.45;;;;;;;12.27;100.00;101661.34;6104532;23;20045;-70
2023/07/18 03:01:22;;;;;;;5.97;5.40;;;;;;;12.20;100.00;101654.63;6095899;23;20520;-69
2023/07/18 03:03:49;;;;;;;5.88;5.40;;;;;;;12.14;100.00;101653.09;6111649;23;20103;-69
2023/07/18 03:06:15;;;;;;;7.07;6.65;;;;;;;11.65;100.00;101580.69;6091826;23;20017;-70
2023/07/18 03:08:42;;;;;;;6.53;5.47;;;;;;;11.94;100.00;101632.06;6109346;23;20089;-68
2023/07/18 03:11:09;;;;;;;5.50;5.20;;;;;;;11.93;100.00;101636.47;6086235;23;20396;-69
2023/07/18 03:13:36;;;;;;;5.95;5.20;;;;;;;12.07;100.00;101661.34;6112862;23;20034;-70
2023/07/18 03:16:04;;;;;;;6.00;5.43;;;;;;;12.08;100.00;101660.41;6115337;23;20066;-69
2023/07/18 03:18:31;;;;;;;5.95;5.40;;;;;;;12.04;100.00;101661.47;6109990;23;20345;-71
2023/07/18 03:20:58;;;;;;;5.82;5.10;;;;;;;11.60;100.00;101588.75;6080141;23;20098;-69
2023/07/18 03:23:27;;;;;;;5.85;5.30;;;;;;;12.00;100.00;101655.47;6116279;23;20079;-69
2023/07/18 03:25:54;;;;;;;6.45;5.65;;;;;;;11.97;100.00;101698.56;6112419;23;20695;-68
2023/07/18 03:28:21;;;;;;;6.35;5.47;;;;;;;11.53;100.00;101601.31;6115915;23;20487;-70
2023/07/18 03:30:47;;;;;;;5.57;5.20;;;;;;;11.93;100.00;101683.81;6109386;23;20021;-68
2023/07/18 03:33:15;;;;;;;6.72;5.00;;;;;;;11.91;100.00;101676.94;6102008;23;20030;-69
2023/07/18 03:35:41;;;;;;;5.90;5.20;;;;;;;11.89;100.00;101679.63;6115425;23;20053;-69
2023/07/18 03:38:08;;;;;;;5.53;5.15;;;;;;;11.79;100.00;101667.75;6113914;23;20094;-69
2023/07/18 03:40:34;;;;;;;5.25;4.95;;;;;;;11.83;100.00;101679.84;6110217;23;20013;-69
2023/07/18 03:43:01;;;;;;;5.50;5.10;;;;;;;11.73;100.00;101665.38;6108649;23;20022;-68
2023/07/18 03:45:28;;;;;;;6.30;5.45;;;;;;;11.83;100.00;101679.84;6109621;23;20017;-68
2023/07/18 03:47:55;;;;;;;5.35;4.97;;;;;;;11.69;100.00;101661.16;6112942;23;20021;-68
2023/07/18 03:50:21;;;;;;;6.10;5.57;;;;;;;11.83;100.00;101685.09;6114369;23;20883;-70
2023/07/18 03:52:48;;;;;;;8.13;5.45;;;;;;;11.20;100.00;101579.03;6112467;23;20077;-70
2023/07/18 03:55:15;;;;;;;6.72;5.60;;;;;;;11.02;100.00;101544.72;6082328;23;20032;-69
2023/07/18 03:57:42;;;;;;;5.82;5.43;;;;;;;11.35;100.00;101602.06;6110703;23;20029;-69
2023/07/18 04:00:17;;;;;;;6.22;5.82;;;;;;;11.80;100.00;101682.59;6113108;23;20168;-70
2023/07/18 04:02:48;;;;;;;5.60;5.20;;;;;;;11.51;100.00;101624.19;6107087;23;20041;-69
2023/07/18 04:05:17;;;;;;;5.90;5.43;;;;;;;11.85;100.00;101662.22;6111314;23;20062;-69
2023/07/18 04:07:45;;;;;;;6.45;5.82;;;;;;;11.92;100.00;101671.56;6111678;23;20113;-69
2023/07/18 04:10:12;;;;;;;5.57;5.18;;;;;;;11.92;100.00;101674.22;6114313;23;20059;-69
2023/07/18 04:12:39;;;;;;;5.90;5.43;;;;;;;11.94;100.00;101679.41;6110700;23;20131;-69
2023/07/18 04:15:10;;;;;;;7.57;5.40;;;;;;;12.02;100.00;101679.09;6112240;23;20584;-69
2023/07/18 04:17:38;;;;;;;5.75;4.88;;;;;;;12.64;100.00;101686.00;6085089;23;20065;-70
2023/07/18 04:20:05;;;;;;;5.60;5.20;;;;;;;12.77;100.00;101645.03;6089847;23;20025;-69
2023/07/18 04:22:32;;;;;;;5.63;5.32;;;;;;;13.59;100.00;101666.66;6109689;23;20033;-68
2023/07/18 04:24:58;;;;;;;5.90;5.30;;;;;;;14.40;100.00;101659.03;6113805;23;20029;-68
2023/07/18 04:27:27;;;;;;;5.68;5.35;;;;;;;14.89;100.00;101636.16;6080365;23;20030;-69
2023/07/18 04:29:53;;;;;;;6.25;5.80;;;;;;;14.99;100.00;101583.59;6092748;23;20025;-68
2023/07/18 04:32:20;;;;;;;6.25;5.72;;;;;;;15.40;100.00;101548.63;6092055;23;20052;-71
2023/07/18 04:34:47;;;;;;;7.30;5.68;;;;;;;15.26;100.00;101443.66;6108599;23;20037;-71
2023/07/18 04:37:13;;;;;;;6.32;5.93;;;;;;;16.08;100.00;101491.66;6081482;23;20024;-69
2023/07/18 04:39:40;;;;;;;6.00;5.60;;;;;;;16.57;97.93;101477.91;6110766;23;20031;-69
2023/07/18 04:42:06;;;;;;;5.70;5.40;;;;;;;17.24;93.35;101469.09;6108698;23;20514;-70
2023/07/18 04:44:33;;;;;;;5.85;5.45;;;;;;;17.85;88.67;101440.13;6112187;23;20041;-70
2023/07/18 04:46:59;;;;;;;6.07;5.60;;;;;;;18.42;83.85;101404.13;6108589;23;20091;-70
2023/07/18 04:49:26;;;;;;;7.88;6.10;;;;;;;18.34;79.63;101295.75;6110373;23;20134;-70
2023/07/18 04:51:52;;;;;;;6.57;5.97;;;;;;;18.84;76.96;101309.69;6088988;23;20039;-71
2023/07/18 04:54:18;;;;;;;6.45;6.05;;;;;;;18.79;74.08;101257.78;6111546;23;20021;-71
2023/07/18 04:56:45;;;;;;;8.25;6.43;;;;;;;18.43;73.52;101241.06;6105577;23;20088;-70
2023/07/18 04:59:11;;;;;;;7.68;6.03;;;;;;;18.79;73.33;101247.16;6113229;23;20077;-70
2023/07/18 05:01:40;;;;;;;5.95;5.60;;;;;;;19.05;72.04;101198.09;6111513;23;20360;-70
2023/07/18 05:04:06;;;;;;;6.30;5.90;;;;;;;19.69;70.52;101218.63;6110186;23;20046;-70
2023/07/18 05:06:33;;;;;;;7.18;6.18;;;;;;;19.82;67.54;101132.41;6056730;23;20017;-68
2023/07/18 05:08:59;;;;;;;6.13;5.72;;;;;;;19.73;66.96;101136.69;6105675;23;20017;-69
2023/07/18 05:11:25;;;;;;;6.75;6.13;;;;;;;19.76;66.53;101123.13;6084745;23;20347;-68
2023/07/18 05:13:52;;;;;;;6.38;5.97;;;;;;;19.98;66.22;101129.28;6110812;23;20025;-68
2023/07/18 05:16:18;;;;;;;6.28;5.88;;;;;;;19.68;66.25;101098.91;6112018;23;20719;-68
2023/07/18 05:18:44;;;;;;;7.15;6.40;;;;;;;19.71;65.86;101099.53;6110214;23;20093;-70
2023/07/18 05:21:11;;;;;;;6.20;5.80;;;;;;;20.19;65.05;101113.31;6109605;23;20586;-69
2023/07/18 05:23:38;;;;;;;6.30;5.93;;;;;;;20.31;64.21;101102.41;6082966;23;20420;-69
2023/07/18 05:26:04;;;;;;;6.32;5.82;;;;;;;20.75;61.27;101037.28;6103765;23;20085;-69
2023/07/18 05:28:31;;;;;;;6.47;6.00;;;;;;;20.36;62.81;101062.00;6109166;23;20042;-68
2023/07/18 05:30:57;;;;;;;6.40;5.88;;;;;;;20.68;62.45;101077.03;6105102;23;20018;-69
2023/07/18 05:33:23;;;;;;;6.35;5.82;;;;;;;20.97;59.23;100974.84;6109898;23;20025;-70
2023/07/18 05:35:50;;;;;;;6.47;6.07;;;;;;;20.69;61.76;101055.56;6109138;23;20040;-69
2023/07/18 05:38:17;;;;;;;5.97;5.63;;;;;;;21.16;61.47;101099.44;6113160;23;20080;-69
2023/07/18 05:40:45;;;;;;;6.80;6.30;;;;;;;20.91;60.46;101034.97;6112331;23;20046;-68
2023/07/18 05:43:11;;;;;;;6.80;6.25;;;;;;;21.18;60.26;101049.44;6113798;23;20036;-68
2023/07/18 05:45:38;;;;;;;6.28;5.88;;;;;;;21.66;57.86;101016.50;6115232;23;20017;-69
2023/07/18 05:48:04;;;;;;;6.57;5.97;;;;;;;21.19;58.22;100987.03;6112577;23;20025;-69
2023/07/18 05:50:31;;;;;;;6.95;6.32;;;;;;;20.95;58.89;100996.34;6113375;23;20713;-70
2023/07/18 05:52:57;;;;;;;6.45;5.85;;;;;;;20.41;59.55;100990.50;6112958;23;20022;-70
2023/07/18 05:55:24;;;;;;;6.10;5.70;;;;;;;20.94;59.77;101079.19;6115383;23;20156;-70
2023/07/18 05:57:50;;;;;;;6.28;5.80;;;;;;;21.12;58.69;101032.97;6088558;23;20099;-70
2023/07/18 06:00:17;;;;;;;6.50;6.10;;;;;;;22.24;56.79;101096.53;6081328;23;20029;-69
2023/07/18 06:02:44;;;;;;;6.32;5.93;;;;;;;22.49;55.66;101027.31;6113465;23;20017;-71
2023/07/18 06:05:11;;;;;;;6.35;5.95;;;;;;;22.97;54.38;101027.97;6083955;23;20072;-70
2023/07/18 06:07:37;;;;;;;6.40;5.90;;;;;;;23.23;53.91;101065.53;6112632;23;20026;-69
2023/07/18 06:10:04;;;;;;;7.53;6.60;;;;;;;23.37;52.36;101018.63;6088873;23;20091;-69
2023/07/18 06:12:31;;;;;;;6.68;6.22;;;;;;;23.31;52.55;101025.44;6111669;23;20100;-68
2023/07/18 06:14:57;;;;;;;6.78;6.28;;;;;;;23.21;52.09;100950.59;6115262;23;20145;-69
2023/07/18 06:17:24;;;;;;;6.18;5.88;;;;;;;22.89;52.96;100999.28;6110933;23;20025;-69
2023/07/18 06:19:50;;;;;;;6.50;6.10;;;;;;;22.87;52.38;101015.53;6114107;23;20464;-68
2023/07/18 06:22:18;;;;;;;6.47;5.97;;;;;;;22.65;51.93;100983.84;6089422;23;20364;-70
2023/07/18 06:24:45;;;;;;;6.47;6.10;;;;;;;22.20;53.89;101062.19;6101999;23;20683;-68
2023/07/18 06:27:11;;;;;;;7.22;6.50;;;;;;;21.65;53.80;100983.63;6111041;23;20013;-68
2023/07/18 06:29:40;;;;;;;6.93;6.38;;;;;;;20.68;58.00;101104.53;6111683;23;20029;-69
2023/07/18 06:32:07;;;;;;;6.38;5.97;;;;;;;20.40;58.90;101123.91;6107064;23;20023;-70
2023/07/18 06:34:40;;;;;;;6.80;6.30;;;;;;;19.71;62.27;101207.88;6095479;23;20022;-69
2023/07/18 06:37:08;;;;;;;6.40;6.00;;;;;;;19.51;62.21;101202.34;6089457;23;20510;-68
2023/07/18 06:39:37;;;;;;;6.80;6.38;;;;;;;19.37;62.88;101215.94;6109860;23;20032;-68
2023/07/18 06:42:05;;;;;;;6.72;6.18;;;;;;;19.22;63.51;101203.88;6111864;23;20029;-67
2023/07/18 06:44:31;;;;;;;6.60;6.10;;;;;;;19.80;62.51;101236.41;6108499;23;20017;-70
2023/07/18 06:46:58;;;;;;;6.20;5.80;;;;;;;18.74;62.42;101070.22;6112484;23;20089;-70
2023/07/18 06:49:24;;;;;;;6.57;5.97;;;;;;;19.67;62.10;101212.59;6084229;23;20095;-68
2023/07/18 06:51:51;;;;;;;6.43;6.00;;;;;;;19.82;61.85;101202.50;6089308;23;20104;-69
2023/07/18 06:54:18;;;;;;;6.05;5.65;;;;;;;19.87;61.20;101210.97;6112396;23;20059;-67
2023/07/18 06:56:45;;;;;;;6.88;6.18;;;;;;;19.52;61.99;101189.88;6109263;23;20072;-67
2023/07/18 06:59:13;;;;;;;6.28;5.88;;;;;;;19.92;61.80;101239.88;6108740;23;20029;-69
2023/07/18 07:01:40;;;;;;;6.72;6.20;;;;;;;20.17;59.79;101192.53;6108303;23;20040;-68
2023/07/18 07:04:06;;;;;;;6.13;5.70;;;;;;;20.31;59.27;101173.53;6088777;23;20038;-69
2023/07/18 07:06:33;;;;;;;6.85;6.10;;;;;;;20.43;57.83;101134.31;6106117;23;20112;-69
2023/07/18 07:09:00;;;;;;;6.93;6.25;;;;;;;20.45;58.22;101141.19;6098611;23;20029;-69
2023/07/18 07:11:27;;;;;;;5.70;5.40;;;;;;;20.49;56.50;101115.13;6110486;23;20078;-69
2023/07/18 07:13:56;;;;;;;6.05;5.63;;;;;;;20.66;56.02;101121.66;6101642;23;20053;-69
2023/07/18 07:16:22;;;;;;;6.45;6.05;;;;;;;20.85;55.73;101107.53;6103148;23;20038;-68
2023/07/18 07:18:50;;;;;;;5.70;5.40;;;;;;;20.97;54.68;101078.88;6088242;23;20029;-69
2023/07/18 07:21:19;;;;;;;5.57;5.28;;;;;;;20.88;55.07;101070.75;6103124;23;20033;-68
2023/07/18 07:23:46;;;;;;;5.75;5.45;;;;;;;20.77;54.76;101052.22;6076062;23;20038;-68
2023/07/18 07:26:12;;;;;;;5.90;5.50;;;;;;;20.90;55.11;101079.44;6111671;23;19994;-68
2023/07/18 07:28:40;;;;;;;6.20;5.68;;;;;;;21.19;53.66;101067.09;6108735;23;20092;-70
2023/07/18 07:31:06;;;;;;;6.30;5.80;;;;;;;21.36;52.22;101001.50;6099400;23;20025;-68
2023/07/18 07:33:33;;;;;;;6.13;5.65;;;;;;;21.46;53.16;101047.75;6065004;23;20020;-69
2023/07/18 07:35:59;;;;;;;5.57;5.28;;;;;;;21.49;50.90;100936.16;6101376;23;20064;-68
2023/07/18 07:38:27;;;;;;;5.88;5.32;;;;;;;21.40;52.11;101013.59;6092619;23;20053;-68
2023/07/18 07:40:56;;;;;;;5.38;5.07;;;;;;;21.94;52.35;101092.22;6097949;23;20099;-69
2023/07/18 07:43:24;;;;;;;5.50;5.20;;;;;;;21.82;49.70;100893.00;6082976;23;20027;-69
2023/07/18 07:45:51;;;;;;;5.60;5.30;;;;;;;22.00;50.09;100954.53;6099197;23;20036;-68
2023/07/18 07:48:21;;;;;;;5.90;5.50;;;;;;;22.26;49.44;100952.84;6113023;23;20724;-68
2023/07/18 07:50:48;;;;;;;6.30;5.80;;;;;;;22.62;48.01;100917.28;6085583;23;20021;-70
2023/07/18 07:53:14;;;;;;;6.10;5.60;;;;;;;23.00;47.44;100910.72;6108258;23;20025;-69
2023/07/18 07:55:41;;;;;;;5.95;5.47;;;;;;;23.08;46.81;100892.06;6103134;23;20059;-68
2023/07/18 07:58:08;;;;;;;5.75;5.35;;;;;;;22.56;47.06;100854.53;6080341;23;20202;-67
2023/07/18 08:00:34;;;;;;;5.63;5.32;;;;;;;23.05;46.40;100943.28;6107707;23;20044;-70
2023/07/18 08:03:01;;;;;;;6.25;5.75;;;;;;;22.72;47.14;100915.34;6111417;23;20498;-70
2023/07/18 08:05:28;;;;;;;5.88;5.40;;;;;;;22.89;47.56;100984.09;6111178;23;20029;-70
2023/07/18 08:07:54;;;;;;;6.40;6.00;;;;;;;23.19;47.67;100997.22;6080017;23;20036;-69
2023/07/18 08:10:21;;;;;;;5.90;5.55;;;;;;;23.21;46.60;100939.00;6110426;23;20034;-70
2023/07/18 08:12:48;;;;;;;6.00;5.50;;;;;;;23.29;46.95;100972.06;6106778;23;20080;-69
2023/07/18 08:15:14;;;;;;;5.60;5.30;;;;;;;23.82;46.29;101005.06;6111766;23;20029;-72
2023/07/18 08:17:40;;;;;;;5.90;5.60;;;;;;;23.96;45.90;100978.69;6108563;23;20104;-71
2023/07/18 08:20:08;;;;;;;5.97;5.60;;;;;;;24.24;45.50;100955.97;6109801;23;20048;-70
2023/07/18 08:22:35;;;;;;;6.10;5.70;;;;;;;24.14;45.29;100979.41;6109711;23;20021;-70
2023/07/18 08:25:01;;;;;;;5.80;5.40;;;;;;;23.22;46.22;100890.66;6109738;23;20029;-68
2023/07/18 08:27:28;;;;;;;6.68;5.45;;;;;;;23.35;47.00;100994.69;6086546;23;20042;-68
2023/07/18 08:29:55;;;;;;;5.60;5.30;;;;;;;23.17;47.50;100967.94;6111312;23;20072;-69
2023/07/18 08:32:21;;;;;;;5.68;5.38;;;;;;;23.02;46.65;100899.91;6081635;23;20455;-68
2023/07/18 08:34:48;;;;;;;5.80;5.50;;;;;;;23.27;46.29;100981.22;6107426;23;20049;-69
2023/07/18 08:37:14;;;;;;;6.10;5.70;;;;;;;22.98;46.24;100887.81;6083890;23;20027;-68
2023/07/18 08:39:40;;;;;;;5.70;5.30;;;;;;;23.27;46.77;100992.81;6108726;23;20065;-71
2023/07/18 08:42:12;;;;;;;14.40;6.40;;;;;;;23.56;46.67;100985.47;6111193;23;20029;-68
2023/07/18 08:44:39;;;;;;;5.93;5.53;;;;;;;23.88;44.38;100933.91;6107713;23;20021;-68
2023/07/18 08:47:07;;;;;;;6.10;5.40;;;;;;;23.86;44.81;100912.63;6081430;23;20287;-68
2023/07/18 08:49:35;;;;;;;8.20;5.68;;;;;;;24.06;44.74;100948.03;6112364;23;20037;-69
2023/07/18 08:52:04;;;;;;;6.20;5.75;;;;;;;23.77;44.33;100918.06;6112092;23;20098;-69
2023/07/18 08:54:32;;;;;;;5.50;5.20;;;;;;;23.52;44.19;100879.63;6107468;23;20045;-69
2023/07/18 08:56:59;;;;;;;5.70;5.40;;;;;;;23.68;43.95;100903.81;6082108;23;20096;-68
2023/07/18 08:59:25;;;;;;;5.72;5.43;;;;;;;24.07;42.80;100925.59;6111310;23;20043;-69
2023/07/18 09:01:53;;;;;;;6.15;5.75;;;;;;;24.00;42.97;100896.94;6111668;23;20032;-67
2023/07/18 09:04:19;;;;;;;5.38;5.18;;;;;;;24.47;41.75;100915.09;6112905;23;20037;-69
2023/07/18 09:06:47;;;;;;;6.00;5.70;;;;;;;24.20;41.76;100827.75;6111094;23;20043;-68
2023/07/18 09:09:27;;;;;;;5.90;5.45;;;;;;;24.92;41.37;100951.41;6121769;23;20041;-65
2023/07/18 09:12:01;;;;;;;5.72;5.30;;;;;;;25.17;40.83;100936.13;6118464;23;20053;-67
2023/07/18 09:14:33;;;;;;;5.70;5.40;;;;;;;25.16;42.08;101017.72;6092842;23;20033;-65
2023/07/18 09:17:03;;;;;;;5.70;5.40;;;;;;;25.62;40.69;100963.44;6114893;23;20029;-67
2023/07/18 09:19:40;;;;;;;6.03;5.70;;;;;;;25.38;40.34;100891.78;6115214;23;20606;-66
2023/07/18 09:22:09;;;;;;;6.00;5.50;;;;;;;24.61;40.62;100884.13;6091181;23;20641;-66
2023/07/18 09:24:35;;;;;;;6.22;5.63;;;;;;;24.29;41.55;100886.59;6111916;23;20511;-65
2023/07/18 09:27:07;;;;;;;5.75;5.45;;;;;;;24.74;40.87;100956.13;6109005;23;20089;-66
2023/07/18 09:29:34;;;;;;;6.20;5.75;;;;;;;25.24;41.47;101022.28;6113919;23;20581;-66
2023/07/18 09:32:00;;;;;;;6.45;5.82;;;;;;;24.84;42.01;100976.41;6091393;23;20615;-66
2023/07/18 09:34:28;;;;;;;5.97;5.47;;;;;;;24.57;40.00;100842.53;6115924;23;20077;-66
2023/07/18 09:37:01;;;;;;;5.82;5.53;;;;;;;24.67;40.90;100948.69;6086475;23;20054;-66
2023/07/18 09:39:28;;;;;;;5.95;5.60;;;;;;;24.77;40.94;100964.66;6090809;23;20022;-66
2023/07/18 09:41:56;;;;;;;6.32;5.93;;;;;;;24.82;41.25;100980.28;6084165;23;20020;-66
2023/07/18 09:44:25;;;;;;;6.25;5.75;;;;;;;24.93;40.83;100952.25;6117079;23;20046;-66
2023/07/18 09:46:59;;;;;;;6.25;5.80;;;;;;;24.97;41.30;100999.25;6113313;23;20021;-67
2023/07/18 09:49:26;;;;;;;6.45;5.93;;;;;;;25.12;40.87;100992.19;6116421;23;20492;-67
2023/07/18 09:52:03;;;;;;;6.03;5.72;;;;;;;25.39;40.48;101015.19;6121489;23;20408;-66
2023/07/18 09:54:31;;;;;;;6.35;5.85;;;;;;;25.62;40.95;101046.78;6115544;23;20025;-66
2023/07/18 09:57:02;;;;;;;6.57;6.07;;;;;;;25.82;40.72;101050.75;6114170;23;20021;-66
2023/07/18 09:59:29;;;;;;;6.45;5.88;;;;;;;26.02;40.33;101055.75;6114665;23;20040;-66
2023/07/18 10:01:59;;;;;;;6.07;5.68;;;;;;;25.91;39.31;100962.88;6114383;23;20929;-68
2023/07/18 10:04:26;;;;;;;6.07;5.57;;;;;;;25.92;40.15;101007.59;6115951;23;20194;-65
2023/07/18 10:06:55;;;;;;;11.65;6.10;;;;;;;25.46;39.22;100900.66;6090663;23;20369;-65
2023/07/18 10:09:23;;;;;;;5.93;5.63;;;;;;;25.18;40.76;100943.19;6111451;23;20029;-66
2023/07/18 10:11:58;;;;;;;6.07;5.70;;;;;;;25.27;40.66;100982.47;6106949;23;20033;-69
2023/07/18 10:14:59;;;;;;;5.95;5.65;;;;;;;24.68;40.09;100861.00;6112673;23;20029;-68
2023/07/18 10:17:35;;;;;;;6.13;5.63;;;;;;;24.59;40.63;100907.63;6112682;23;20041;-68
2023/07/18 10:20:10;;;;;;;6.10;5.50;;;;;;;24.51;42.20;100967.47;6114931;23;20032;-70
2023/07/18 10:22:36;;;;;;;5.93;5.63;;;;;;;24.92;41.82;101007.81;6113854;23;20005;-68
2023/07/18 10:25:07;;;;;;;6.53;5.90;;;;;;;24.60;40.33;100899.41;6112501;23;20026;-68
2023/07/18 10:27:36;;;;;;;6.10;5.60;;;;;;;25.14;40.85;101025.09;6100060;23;20042;-69
2023/07/18 10:30:11;;;;;;;5.78;5.40;;;;;;;25.54;39.87;101006.44;6089649;23;20037;-70
2023/07/18 10:32:38;;;;;;;5.88;5.53;;;;;;;25.24;39.12;100850.38;6115814;23;20013;-69
2023/07/18 10:35:08;;;;;;;6.30;5.78;;;;;;;25.59;39.94;100970.00;6115011;23;20908;-71
2023/07/18 10:37:36;;;;;;;6.18;5.78;;;;;;;25.70;39.36;100922.25;6112020;23;20099;-68
2023/07/18 10:40:05;;;;;;;5.82;5.53;;;;;;;25.31;40.55;100963.34;6115412;23;20025;-68
2023/07/18 10:42:34;;;;;;;6.32;5.82;;;;;;;25.60;40.54;101000.38;6111950;23;20084;-68
2023/07/18 10:45:08;;;;;;;6.43;5.70;;;;;;;25.73;39.45;100973.81;6087524;23;20058;-67
2023/07/18 10:47:36;;;;;;;5.97;5.68;;;;;;;25.56;39.92;100911.22;6111378;23;20037;-67
2023/07/18 10:50:04;;;;;;;6.13;5.70;;;;;;;26.08;39.52;100982.47;6112993;23;20088;-66
2023/07/18 10:52:32;;;;;;;6.30;5.93;;;;;;;26.31;40.43;101060.56;6115036;23;20029;-67
2023/07/18 10:55:00;;;;;;;6.22;5.70;;;;;;;25.56;39.53;100889.72;6087204;23;20107;-67
2023/07/18 10:57:28;;;;;;;6.53;6.03;;;;;;;26.17;39.61;100983.28;6084400;23;20084;-68
2023/07/18 10:59:55;;;;;;;6.28;5.68;;;;;;;26.38;40.01;101014.94;6109539;23;20081;-66
2023/07/18 11:02:22;;;;;;;6.00;5.60;;;;;;;26.53;38.97;100978.19;6082266;23;20081;-67
2023/07/18 11:04:53;;;;;;;6.03;5.63;;;;;;;26.47;38.21;100930.44;6113473;23;20570;-66
2023/07/18 11:07:34;;;;;;;6.18;5.68;;;;;;;26.34;38.35;100903.28;6084009;23;20037;-67
2023/07/18 11:10:01;;;;;;;6.25;5.75;;;;;;;26.26;39.22;100934.63;6102776;23;20025;-68
2023/07/18 11:12:27;;;;;;;6.57;5.97;;;;;;;26.02;38.98;100891.69;6112431;23;20600;-67
2023/07/18 11:14:54;;;;;;;6.05;5.70;;;;;;;25.60;39.11;100857.94;6111239;23;20056;-67
2023/07/18 11:17:23;;;;;;;6.28;5.50;;;;;;;25.68;39.34;100882.13;6065777;23;20049;-66
2023/07/18 11:19:49;;;;;;;6.43;6.00;;;;;;;24.55;40.09;100751.47;6090896;23;20422;-68
2023/07/18 11:22:16;;;;;;;6.50;5.95;;;;;;;25.62;40.93;100947.31;6110599;23;20026;-68
2023/07/18 11:24:45;;;;;;;6.25;5.85;;;;;;;26.30;39.63;100955.78;6096104;23;20591;-68